Sct Santiago — V7NF7 — position and weather

sailwx.info

Track history (hours):
 
Tides and Currents Weather Stations Pressure Air Temp Water Temp Dewpoint Dewpoint Depression Visibility Wind Speed Wind Dir Waves Ship Positions

Sct Santiago

Last reported at 2016-Sep-26 02:08 UTC. Time now 2016-Sep-30 06:43 UTC.
Position N 31°50' W 080°35'.

; draft 11.7 m.

Type: Cargo ship. MMSI: 538002953.

Date/timePositionNaut miles runAvg speedWind from/ knotsBaromVisibWave heightAir tempDewpointWater temp
2016-Sep-26 02:08N 31°50' W 080°35'813.7
2016-Sep-26 01:33N 31°57' W 080°40'1212.4
2016-Sep-26 00:34N 32°02' W 080°53'14 4.7
2016-Sep-25 21:33N 32°08' W 081°08'0 0.0
2016-Sep-25 17:29N 32°08' W 081°08'0 0.0
2016-Sep-25 16:32N 32°08' W 081°08'0 0.0
2016-Sep-25 15:33N 32°08' W 081°08'0 0.0
2016-Sep-25 14:33N 32°08' W 081°08'0 0.0
2016-Sep-25 12:31N 32°08' W 081°08'0 0.0
2016-Sep-25 11:31N 32°08' W 081°08'0 0.0
2016-Sep-25 10:31N 32°08' W 081°08'0 0.0
2016-Sep-25 09:33N 32°08' W 081°08'8 4.1
2016-Sep-25 07:33N 32°05' W 080°59'3511.7
2016-Sep-25 04:33N 31°56' W 080°19'19517.7
2016-Sep-24 17:33N 33°34' W 076°59'2217.8
2016-Sep-24 16:20N 33°48' W 076°40'3716.3
2016-Sep-24 14:06N 34°12' W 076°06'2717.3
2016-Sep-24 12:33N 34°30' W 075°42'151 5.6
2016-Sep-23 09:31N 36°57' W 076°20'2 0.3
2016-Sep-23 02:22N 36°56' W 076°20'0 0.0
2016-Sep-22 23:21N 36°56' W 076°20'17 6.2
2016-Sep-22 20:33N 36°57' W 075°58'10713.4
2016-Sep-22 12:33N 38°12' W 074°22'14317.9
2016-Sep-22 04:33N 40°35' W 074°02'6 6.4
2016-Sep-22 03:33N 40°39' W 074°08'2 0.5
2016-Sep-22 00:31N 40°40' W 074°09'0 0.0
2016-Sep-21 23:31N 40°40' W 074°09'0 0.0
2016-Sep-21 22:31N 40°40' W 074°09'0 0.0
2016-Sep-21 19:31N 40°40' W 074°09'0 0.0
2016-Sep-21 16:31N 40°40' W 074°09'0 0.0
2016-Sep-21 09:31N 40°40' W 074°09'0 0.0
2016-Sep-21 08:31N 40°40' W 074°09'0 0.0
2016-Sep-21 05:31N 40°40' W 074°09'0 0.0
2016-Sep-21 03:31N 40°40' W 074°09'0 0.0
2016-Sep-21 02:31N 40°40' W 074°09'  
2016-Sep-16 09:09N 40°31' W 029°01'  
Track history (hours):
 
Tides and Currents Weather Stations Pressure Air Temp Water Temp Dewpoint Dewpoint Depression Visibility Wind Speed Wind Dir Waves Ship Positions

Sct Santiago

Last reported at 2016-Sep-26 02:08 UTC. Time now 2016-Sep-30 06:43 UTC.
Position N 31°50' W 080°35'.

; draft 11.7 m.

Type: Cargo ship. MMSI: 538002953.

Date/timePositionNaut miles runAvg speedWind from/ knotsBaromVisibWave heightAir tempDewpointWater temp
2016-Sep-26 02:08N 31°50' W 080°35'813.7
2016-Sep-26 01:33N 31°57' W 080°40'1212.4
2016-Sep-26 00:34N 32°02' W 080°53'14 4.7
2016-Sep-25 21:33N 32°08' W 081°08'0 0.0
2016-Sep-25 17:29N 32°08' W 081°08'0 0.0
2016-Sep-25 16:32N 32°08' W 081°08'0 0.0
2016-Sep-25 15:33N 32°08' W 081°08'0 0.0
2016-Sep-25 14:33N 32°08' W 081°08'0 0.0
2016-Sep-25 12:31N 32°08' W 081°08'0 0.0
2016-Sep-25 11:31N 32°08' W 081°08'0 0.0
2016-Sep-25 10:31N 32°08' W 081°08'0 0.0
2016-Sep-25 09:33N 32°08' W 081°08'8 4.1
2016-Sep-25 07:33N 32°05' W 080°59'3511.7
2016-Sep-25 04:33N 31°56' W 080°19'19517.7
2016-Sep-24 17:33N 33°34' W 076°59'2217.8
2016-Sep-24 16:20N 33°48' W 076°40'3716.3
2016-Sep-24 14:06N 34°12' W 076°06'2717.3
2016-Sep-24 12:33N 34°30' W 075°42'151 5.6
2016-Sep-23 09:31N 36°57' W 076°20'2 0.3
2016-Sep-23 02:22N 36°56' W 076°20'0 0.0
2016-Sep-22 23:21N 36°56' W 076°20'17 6.2
2016-Sep-22 20:33N 36°57' W 075°58'10713.4
2016-Sep-22 12:33N 38°12' W 074°22'14317.9
2016-Sep-22 04:33N 40°35' W 074°02'6 6.4
2016-Sep-22 03:33N 40°39' W 074°08'2 0.5
2016-Sep-22 00:31N 40°40' W 074°09'0 0.0
2016-Sep-21 23:31N 40°40' W 074°09'0 0.0
2016-Sep-21 22:31N 40°40' W 074°09'0 0.0
2016-Sep-21 19:31N 40°40' W 074°09'0 0.0
2016-Sep-21 16:31N 40°40' W 074°09'0 0.0
2016-Sep-21 09:31N 40°40' W 074°09'0 0.0
2016-Sep-21 08:31N 40°40' W 074°09'0 0.0
2016-Sep-21 05:31N 40°40' W 074°09'0 0.0
2016-Sep-21 03:31N 40°40' W 074°09'0 0.0
2016-Sep-21 02:31N 40°40' W 074°09'  
2016-Sep-16 09:09N 40°31' W 029°01'  

Dump ship's entire track history